sensor_id;sensor_type;location;lat;lon;timestamp;pressure;altitude;pressure_sealevel;temperature;humidity
27429;BME280;14881;48.092;11.574;2023-08-21T00:00:38;96008.84;;;17.21;100.00
27429;BME280;14881;48.092;11.574;2023-08-21T00:03:04;96005.63;;;17.28;100.00
27429;BME280;14881;48.092;11.574;2023-08-21T00:05:31;95997.72;;;17.26;100.00
27429;BME280;14881;48.092;11.574;2023-08-21T00:07:58;95994.78;;;17.23;100.00
27429;BME280;14881;48.092;11.574;2023-08-21T00:10:24;95997.84;;;17.13;100.00
27429;BME280;14881;48.092;11.574;2023-08-21T00:12:50;95995.91;;;17.13;100.00
27429;BME280;14881;48.092;11.574;2023-08-21T00:15:18;95997.31;;;17.02;100.00
27429;BME280;14881;48.092;11.574;2023-08-21T00:17:44;95998.91;;;16.94;100.00
27429;BME280;14881;48.092;11.574;2023-08-21T00:20:11;95993.38;;;16.86;100.00
27429;BME280;14881;48.092;11.574;2023-08-21T00:22:37;95995.81;;;16.87;100.00
27429;BME280;14881;48.092;11.574;2023-08-21T00:25:05;95987.06;;;16.77;100.00
27429;BME280;14881;48.092;11.574;2023-08-21T00:27:31;95996.91;;;16.78;100.00
27429;BME280;14881;48.092;11.574;2023-08-21T00:29:59;95988.03;;;16.81;100.00
27429;BME280;14881;48.092;11.574;2023-08-21T00:32:27;95980.97;;;16.88;100.00
27429;BME280;14881;48.092;11.574;2023-08-21T00:34:53;95994.81;;;16.83;100.00
27429;BME280;14881;48.092;11.574;2023-08-21T00:37:19;95980.75;;;16.76;100.00
27429;BME280;14881;48.092;11.574;2023-08-21T00:39:46;95986.75;;;16.78;100.00
27429;BME280;14881;48.092;11.574;2023-08-21T00:42:12;95990.63;;;16.77;100.00
27429;BME280;14881;48.092;11.574;2023-08-21T00:44:39;95987.19;;;16.72;100.00
27429;BME280;14881;48.092;11.574;2023-08-21T00:47:05;95985.06;;;16.68;100.00
27429;BME280;14881;48.092;11.574;2023-08-21T00:49:32;95986.50;;;16.66;100.00
27429;BME280;14881;48.092;11.574;2023-08-21T00:52:00;95980.66;;;16.59;100.00
27429;BME280;14881;48.092;11.574;2023-08-21T00:54:27;95982.72;;;16.53;100.00
27429;BME280;14881;48.092;11.574;2023-08-21T00:56:54;95983.66;;;16.49;100.00
27429;BME280;14881;48.092;11.574;2023-08-21T00:59:21;95983.31;;;16.42;100.00
27429;BME280;14881;48.092;11.574;2023-08-21T01:01:48;95980.78;;;16.54;100.00
27429;BME280;14881;48.092;11.574;2023-08-21T01:04:14;95979.16;;;16.53;100.00
27429;BME280;14881;48.092;11.574;2023-08-21T01:06:41;95982.41;;;16.55;100.00
27429;BME280;14881;48.092;11.574;2023-08-21T01:09:12;95977.84;;;16.50;100.00
27429;BME280;14881;48.092;11.574;2023-08-21T01:11:45;95972.69;;;16.49;100.00
27429;BME280;14881;48.092;11.574;2023-08-21T01:14:17;95980.06;;;16.40;100.00
27429;BME280;14881;48.092;11.574;2023-08-21T01:16:52;95982.19;;;16.43;100.00
27429;BME280;14881;48.092;11.574;2023-08-21T01:19:26;95987.00;;;16.37;100.00
27429;BME280;14881;48.092;11.574;2023-08-21T01:21:57;95982.59;;;16.27;100.00
27429;BME280;14881;48.092;11.574;2023-08-21T01:24:25;95983.84;;;16.21;100.00
27429;BME280;14881;48.092;11.574;2023-08-21T01:26:51;95986.91;;;16.20;100.00
27429;BME280;14881;48.092;11.574;2023-08-21T01:29:17;95993.81;;;16.17;100.00
27429;BME280;14881;48.092;11.574;2023-08-21T01:31:49;95987.50;;;16.17;100.00
27429;BME280;14881;48.092;11.574;2023-08-21T01:34:17;95988.31;;;16.17;100.00
27429;BME280;14881;48.092;11.574;2023-08-21T01:36:44;95990.31;;;16.25;100.00
27429;BME280;14881;48.092;11.574;2023-08-21T01:39:11;95983.06;;;16.29;100.00
27429;BME280;14881;48.092;11.574;2023-08-21T01:41:38;95975.81;;;16.25;100.00
27429;BME280;14881;48.092;11.574;2023-08-21T01:44:05;95976.31;;;16.27;100.00
27429;BME280;14881;48.092;11.574;2023-08-21T01:46:31;95980.47;;;16.24;100.00
27429;BME280;14881;48.092;11.574;2023-08-21T01:48:57;95979.59;;;16.15;100.00
27429;BME280;14881;48.092;11.574;2023-08-21T01:51:24;95977.31;;;16.09;100.00
27429;BME280;14881;48.092;11.574;2023-08-21T01:53:50;95977.44;;;16.04;100.00
27429;BME280;14881;48.092;11.574;2023-08-21T01:56:17;95983.53;;;16.00;100.00
27429;BME280;14881;48.092;11.574;2023-08-21T01:58:44;95990.16;;;15.99;100.00
27429;BME280;14881;48.092;11.574;2023-08-21T02:01:10;95988.53;;;15.98;100.00
27429;BME280;14881;48.092;11.574;2023-08-21T02:03:36;95988.03;;;15.96;100.00
27429;BME280;14881;48.092;11.574;2023-08-21T02:06:03;95987.22;;;15.96;100.00
27429;BME280;14881;48.092;11.574;2023-08-21T02:08:31;95992.38;;;15.97;100.00
27429;BME280;14881;48.092;11.574;2023-08-21T02:10:58;95990.25;;;15.94;100.00
27429;BME280;14881;48.092;11.574;2023-08-21T02:13:25;95990.09;;;15.91;100.00
27429;BME280;14881;48.092;11.574;2023-08-21T02:15:52;95990.22;;;15.86;100.00
27429;BME280;14881;48.092;11.574;2023-08-21T02:18:18;95994.56;;;15.87;100.00
27429;BME280;14881;48.092;11.574;2023-08-21T02:20:46;95990.63;;;15.79;100.00
27429;BME280;14881;48.092;11.574;2023-08-21T02:23:13;95989.31;;;15.77;100.00
27429;BME280;14881;48.092;11.574;2023-08-21T02:25:40;95987.22;;;15.74;100.00
27429;BME280;14881;48.092;11.574;2023-08-21T02:28:06;95986.22;;;15.70;100.00
27429;BME280;14881;48.092;11.574;2023-08-21T02:30:32;95989.88;;;15.65;100.00
27429;BME280;14881;48.092;11.574;2023-08-21T02:32:59;96000.63;;;15.61;100.00
27429;BME280;14881;48.092;11.574;2023-08-21T02:35:26;95999.31;;;15.59;100.00
27429;BME280;14881;48.092;11.574;2023-08-21T02:37:52;95995.97;;;15.62;100.00
27429;BME280;14881;48.092;11.574;2023-08-21T02:40:18;95995.81;;;15.58;100.00
27429;BME280;14881;48.092;11.574;2023-08-21T02:42:45;95994.53;;;15.64;100.00
27429;BME280;14881;48.092;11.574;2023-08-21T02:45:11;95987.25;;;15.60;100.00
27429;BME280;14881;48.092;11.574;2023-08-21T02:47:39;95994.66;;;15.59;100.00
27429;BME280;14881;48.092;11.574;2023-08-21T02:50:08;95994.50;;;15.56;100.00
27429;BME280;14881;48.092;11.574;2023-08-21T02:52:35;95998.94;;;15.52;100.00
27429;BME280;14881;48.092;11.574;2023-08-21T02:55:04;96001.97;;;15.50;100.00
27429;BME280;14881;48.092;11.574;2023-08-21T02:57:30;95997.81;;;15.53;100.00
27429;BME280;14881;48.092;11.574;2023-08-21T02:59:57;95998.84;;;15.57;100.00
27429;BME280;14881;48.092;11.574;2023-08-21T03:02:24;95999.31;;;15.59;100.00
27429;BME280;14881;48.092;11.574;2023-08-21T03:04:52;95995.00;;;15.58;100.00
27429;BME280;14881;48.092;11.574;2023-08-21T03:07:19;96002.41;;;15.57;100.00
27429;BME280;14881;48.092;11.574;2023-08-21T03:09:46;95998.03;;;15.56;100.00
27429;BME280;14881;48.092;11.574;2023-08-21T03:12:13;96002.47;;;15.52;100.00
27429;BME280;14881;48.092;11.574;2023-08-21T03:14:39;95991.81;;;15.51;100.00
27429;BME280;14881;48.092;11.574;2023-08-21T03:17:05;95996.09;;;15.57;100.00
27429;BME280;14881;48.092;11.574;2023-08-21T03:19:32;96002.16;;;15.54;100.00
27429;BME280;14881;48.092;11.574;2023-08-21T03:21:58;95998.72;;;15.48;100.00
27429;BME280;14881;48.092;11.574;2023-08-21T03:24:25;96008.66;;;15.44;100.00
27429;BME280;14881;48.092;11.574;2023-08-21T03:26:51;96004.44;;;15.38;100.00
27429;BME280;14881;48.092;11.574;2023-08-21T03:29:18;96006.53;;;15.41;100.00
27429;BME280;14881;48.092;11.574;2023-08-21T03:31:46;96016.81;;;15.36;100.00
27429;BME280;14881;48.092;11.574;2023-08-21T03:34:13;96010.03;;;15.33;100.00
27429;BME280;14881;48.092;11.574;2023-08-21T03:36:39;96005.97;;;15.30;100.00
27429;BME280;14881;48.092;11.574;2023-08-21T03:39:05;96018.34;;;15.28;100.00
27429;BME280;14881;48.092;11.574;2023-08-21T03:41:32;96020.25;;;15.27;100.00
27429;BME280;14881;48.092;11.574;2023-08-21T03:43:59;96023.81;;;15.28;100.00
27429;BME280;14881;48.092;11.574;2023-08-21T03:46:25;96024.41;;;15.25;100.00
27429;BME280;14881;48.092;11.574;2023-08-21T03:48:51;96026.25;;;15.29;100.00
27429;BME280;14881;48.092;11.574;2023-08-21T03:51:18;96029.28;;;15.28;100.00
27429;BME280;14881;48.092;11.574;2023-08-21T03:53:44;96034.88;;;15.37;100.00
27429;BME280;14881;48.092;11.574;2023-08-21T03:56:10;96041.53;;;15.44;100.00
27429;BME280;14881;48.092;11.574;2023-08-21T03:58:37;96035.44;;;15.47;100.00
27429;BME280;14881;48.092;11.574;2023-08-21T04:01:04;96041.63;;;15.53;100.00
27429;BME280;14881;48.092;11.574;2023-08-21T04:03:30;96038.47;;;15.59;100.00
27429;BME280;14881;48.092;11.574;2023-08-21T04:05:57;96035.75;;;15.59;100.00
27429;BME280;14881;48.092;11.574;2023-08-21T04:08:24;96045.19;;;15.53;100.00
27429;BME280;14881;48.092;11.574;2023-08-21T04:10:51;96039.69;;;15.53;100.00
27429;BME280;14881;48.092;11.574;2023-08-21T04:13:18;96042.97;;;15.55;100.00
27429;BME280;14881;48.092;11.574;2023-08-21T04:15:45;96045.72;;;15.55;100.00
27429;BME280;14881;48.092;11.574;2023-08-21T04:18:12;96038.59;;;15.54;100.00
27429;BME280;14881;48.092;11.574;2023-08-21T04:20:44;96032.50;;;15.44;100.00
27429;BME280;14881;48.092;11.574;2023-08-21T04:23:10;96039.75;;;15.40;100.00
27429;BME280;14881;48.092;11.574;2023-08-21T04:25:36;96031.00;;;15.38;100.00
27429;BME280;14881;48.092;11.574;2023-08-21T04:28:03;96032.63;;;15.39;100.00
27429;BME280;14881;48.092;11.574;2023-08-21T04:30:29;96032.63;;;15.39;100.00
27429;BME280;14881;48.092;11.574;2023-08-21T04:32:56;96038.94;;;15.39;100.00
27429;BME280;14881;48.092;11.574;2023-08-21T04:35:23;96033.75;;;15.38;100.00
27429;BME280;14881;48.092;11.574;2023-08-21T04:37:49;96027.47;;;15.37;100.00
27429;BME280;14881;48.092;11.574;2023-08-21T04:40:15;96035.06;;;15.40;100.00
27429;BME280;14881;48.092;11.574;2023-08-21T04:42:43;96034.94;;;15.45;100.00
27429;BME280;14881;48.092;11.574;2023-08-21T04:45:10;96039.00;;;15.48;100.00
27429;BME280;14881;48.092;11.574;2023-08-21T04:47:36;96039.00;;;15.48;100.00
27429;BME280;14881;48.092;11.574;2023-08-21T04:50:04;96040.00;;;15.52;100.00
27429;BME280;14881;48.092;11.574;2023-08-21T04:52:30;96040.09;;;15.60;100.00
27429;BME280;14881;48.092;11.574;2023-08-21T04:54:57;96036.91;;;15.58;100.00
27429;BME280;14881;48.092;11.574;2023-08-21T04:57:23;96037.25;;;15.65;100.00
27429;BME280;14881;48.092;11.574;2023-08-21T04:59:50;96043.44;;;15.71;100.00
27429;BME280;14881;48.092;11.574;2023-08-21T05:02:16;96038.63;;;15.77;100.00
27429;BME280;14881;48.092;11.574;2023-08-21T05:04:42;96045.28;;;15.76;100.00
27429;BME280;14881;48.092;11.574;2023-08-21T05:07:09;96038.16;;;15.75;100.00
27429;BME280;14881;48.092;11.574;2023-08-21T05:09:36;96039.16;;;15.79;100.00
27429;BME280;14881;48.092;11.574;2023-08-21T05:12:03;96049.81;;;15.80;100.00
27429;BME280;14881;48.092;11.574;2023-08-21T05:14:29;96052.44;;;15.85;100.00
27429;BME280;14881;48.092;11.574;2023-08-21T05:16:55;96047.44;;;15.87;100.00
27429;BME280;14881;48.092;11.574;2023-08-21T05:19:22;96058.63;;;15.91;100.00
27429;BME280;14881;48.092;11.574;2023-08-21T05:21:48;96051.00;;;15.88;100.00
27429;BME280;14881;48.092;11.574;2023-08-21T05:24:15;96054.25;;;15.90;100.00
27429;BME280;14881;48.092;11.574;2023-08-21T05:26:42;96047.59;;;16.05;100.00
27429;BME280;14881;48.092;11.574;2023-08-21T05:29:08;96044.78;;;16.18;100.00
27429;BME280;14881;48.092;11.574;2023-08-21T05:31:34;96052.44;;;16.30;100.00
27429;BME280;14881;48.092;11.574;2023-08-21T05:34:01;96044.16;;;16.44;100.00
27429;BME280;14881;48.092;11.574;2023-08-21T05:36:27;96041.34;;;16.57;100.00
27429;BME280;14881;48.092;11.574;2023-08-21T05:38:53;96045.03;;;16.84;100.00
27429;BME280;14881;48.092;11.574;2023-08-21T05:41:20;96046.16;;;17.14;100.00
27429;BME280;14881;48.092;11.574;2023-08-21T05:43:47;96046.84;;;17.36;100.00
27429;BME280;14881;48.092;11.574;2023-08-21T05:46:14;96038.31;;;17.55;100.00
27429;BME280;14881;48.092;11.574;2023-08-21T05:48:41;96046.66;;;17.81;100.00
27429;BME280;14881;48.092;11.574;2023-08-21T05:51:07;96042.59;;;18.04;100.00
27429;BME280;14881;48.092;11.574;2023-08-21T05:53:33;96034.66;;;18.20;100.00
27429;BME280;14881;48.092;11.574;2023-08-21T05:56:00;96048.72;;;18.36;100.00
27429;BME280;14881;48.092;11.574;2023-08-21T05:58:27;96042.41;;;18.61;100.00
27429;BME280;14881;48.092;11.574;2023-08-21T06:00:56;96037.97;;;18.86;100.00
27429;BME280;14881;48.092;11.574;2023-08-21T06:03:22;96034.75;;;19.13;100.00
27429;BME280;14881;48.092;11.574;2023-08-21T06:05:49;96032.66;;;19.40;100.00
27429;BME280;14881;48.092;11.574;2023-08-21T06:08:15;96029.97;;;19.61;100.00
27429;BME280;14881;48.092;11.574;2023-08-21T06:10:42;96027.44;;;19.76;100.00
27429;BME280;14881;48.092;11.574;2023-08-21T06:13:08;96017.91;;;19.95;100.00
27429;BME280;14881;48.092;11.574;2023-08-21T06:15:35;96015.31;;;20.10;100.00
27429;BME280;14881;48.092;11.574;2023-08-21T06:18:01;96020.34;;;20.29;100.00
27429;BME280;14881;48.092;11.574;2023-08-21T06:20:28;96022.41;;;20.41;100.00
27429;BME280;14881;48.092;11.574;2023-08-21T06:22:54;96008.91;;;20.60;100.00
27429;BME280;14881;48.092;11.574;2023-08-21T06:25:21;96017.00;;;20.77;100.00
27429;BME280;14881;48.092;11.574;2023-08-21T06:27:47;96015.28;;;20.97;100.00
27429;BME280;14881;48.092;11.574;2023-08-21T06:30:25;96009.19;;;21.16;100.00
27429;BME280;14881;48.092;11.574;2023-08-21T06:32:52;96007.72;;;21.31;100.00
27429;BME280;14881;48.092;11.574;2023-08-21T06:35:18;96007.47;;;21.48;100.00
27429;BME280;14881;48.092;11.574;2023-08-21T06:37:45;96007.69;;;21.67;100.00
27429;BME280;14881;48.092;11.574;2023-08-21T06:40:11;96007.41;;;21.84;100.00
27429;BME280;14881;48.092;11.574;2023-08-21T06:42:38;96007.53;;;22.00;100.00
27429;BME280;14881;48.092;11.574;2023-08-21T06:45:05;96007.41;;;22.09;100.00
27429;BME280;14881;48.092;11.574;2023-08-21T06:47:32;96002.63;;;22.21;100.00
27429;BME280;14881;48.092;11.574;2023-08-21T06:49:59;96009.81;;;22.38;100.00
27429;BME280;14881;48.092;11.574;2023-08-21T06:52:26;96019.59;;;22.48;100.00
27429;BME280;14881;48.092;11.574;2023-08-21T06:54:52;96009.25;;;22.61;100.00
27429;BME280;14881;48.092;11.574;2023-08-21T06:57:19;96012.06;;;22.76;100.00
27429;BME280;14881;48.092;11.574;2023-08-21T06:59:45;96013.34;;;22.95;100.00
27429;BME280;14881;48.092;11.574;2023-08-21T07:02:12;96001.38;;;23.06;100.00
27429;BME280;14881;48.092;11.574;2023-08-21T07:04:38;96008.16;;;23.24;100.00
27429;BME280;14881;48.092;11.574;2023-08-21T07:07:05;96007.53;;;23.31;100.00
27429;BME280;14881;48.092;11.574;2023-08-21T07:09:32;96017.00;;;23.46;100.00
27429;BME280;14881;48.092;11.574;2023-08-21T07:11:58;96006.38;;;23.64;100.00
27429;BME280;14881;48.092;11.574;2023-08-21T07:14:24;96011.28;;;23.70;100.00
27429;BME280;14881;48.092;11.574;2023-08-21T07:16:51;96015.00;;;23.78;100.00
27429;BME280;14881;48.092;11.574;2023-08-21T07:19:17;96021.31;;;23.94;100.00
27429;BME280;14881;48.092;11.574;2023-08-21T07:21:44;96019.25;;;24.07;100.00
27429;BME280;14881;48.092;11.574;2023-08-21T07:24:11;96022.75;;;24.23;100.00
27429;BME280;14881;48.092;11.574;2023-08-21T07:26:37;96012.69;;;24.34;100.00
27429;BME280;14881;48.092;11.574;2023-08-21T07:29:03;96011.72;;;24.46;100.00
27429;BME280;14881;48.092;11.574;2023-08-21T07:31:30;96016.47;;;24.64;100.00
27429;BME280;14881;48.092;11.574;2023-08-21T07:33:56;96017.00;;;24.70;100.00
27429;BME280;14881;48.092;11.574;2023-08-21T07:36:23;96014.09;;;24.86;100.00
27429;BME280;14881;48.092;11.574;2023-08-21T07:38:49;96013.75;;;24.87;100.00
27429;BME280;14881;48.092;11.574;2023-08-21T07:41:17;96018.47;;;25.06;100.00
27429;BME280;14881;48.092;11.574;2023-08-21T07:43:44;96001.72;;;25.25;100.00
27429;BME280;14881;48.092;11.574;2023-08-21T07:46:12;96011.72;;;25.30;100.00
27429;BME280;14881;48.092;11.574;2023-08-21T07:48:41;96006.34;;;25.41;100.00
27429;BME280;14881;48.092;11.574;2023-08-21T07:51:08;96003.78;;;25.55;100.00
27429;BME280;14881;48.092;11.574;2023-08-21T07:53:35;96001.50;;;25.60;100.00
27429;BME280;14881;48.092;11.574;2023-08-21T07:56:02;95998.84;;;25.67;100.00
27429;BME280;14881;48.092;11.574;2023-08-21T07:58:30;96002.16;;;25.77;100.00
27429;BME280;14881;48.092;11.574;2023-08-21T08:00:57;96008.75;;;25.91;100.00
27429;BME280;14881;48.092;11.574;2023-08-21T08:03:23;96005.84;;;26.11;100.00
27429;BME280;14881;48.092;11.574;2023-08-21T08:05:50;96000.81;;;26.23;100.00
27429;BME280;14881;48.092;11.574;2023-08-21T08:08:21;96002.47;;;26.28;100.00
27429;BME280;14881;48.092;11.574;2023-08-21T08:10:48;96001.44;;;26.40;100.00
27429;BME280;14881;48.092;11.574;2023-08-21T08:13:14;95996.78;;;26.47;100.00
27429;BME280;14881;48.092;11.574;2023-08-21T08:15:41;95998.91;;;26.61;100.00
27429;BME280;14881;48.092;11.574;2023-08-21T08:18:11;95997.38;;;26.67;100.00
27429;BME280;14881;48.092;11.574;2023-08-21T08:20:38;95999.44;;;26.74;100.00
27429;BME280;14881;48.092;11.574;2023-08-21T08:23:04;95997.56;;;26.85;100.00
27429;BME280;14881;48.092;11.574;2023-08-21T08:25:30;96002.34;;;26.84;100.00
27429;BME280;14881;48.092;11.574;2023-08-21T08:27:57;96004.94;;;27.00;100.00
27429;BME280;14881;48.092;11.574;2023-08-21T08:30:23;96006.31;;;27.20;100.00
27429;BME280;14881;48.092;11.574;2023-08-21T08:32:50;95999.63;;;27.28;100.00
27429;BME280;14881;48.092;11.574;2023-08-21T08:35:17;95999.72;;;27.39;100.00
27429;BME280;14881;48.092;11.574;2023-08-21T08:37:43;95997.91;;;27.61;100.00
27429;BME280;14881;48.092;11.574;2023-08-21T08:40:11;96003.97;;;27.66;100.00
27429;BME280;14881;48.092;11.574;2023-08-21T08:42:38;96002.00;;;27.74;100.00
27429;BME280;14881;48.092;11.574;2023-08-21T08:45:06;95996.84;;;27.80;100.00
27429;BME280;14881;48.092;11.574;2023-08-21T08:47:33;95999.41;;;28.02;100.00
27429;BME280;14881;48.092;11.574;2023-08-21T08:50:01;96001.13;;;28.21;100.00
27429;BME280;14881;48.092;11.574;2023-08-21T08:52:31;95994.41;;;28.33;100.00
27429;BME280;14881;48.092;11.574;2023-08-21T08:54:57;95998.81;;;28.41;100.00
27429;BME280;14881;48.092;11.574;2023-08-21T08:57:24;96003.25;;;28.49;100.00
27429;BME280;14881;48.092;11.574;2023-08-21T08:59:50;95996.94;;;28.70;100.00
27429;BME280;14881;48.092;11.574;2023-08-21T09:02:17;95997.34;;;28.79;100.00
27429;BME280;14881;48.092;11.574;2023-08-21T09:04:43;95995.78;;;28.82;100.00
27429;BME280;14881;48.092;11.574;2023-08-21T09:07:11;95996.59;;;28.93;100.00
27429;BME280;14881;48.092;11.574;2023-08-21T09:09:39;95997.41;;;28.93;100.00
27429;BME280;14881;48.092;11.574;2023-08-21T09:12:09;95993.84;;;29.03;100.00
27429;BME280;14881;48.092;11.574;2023-08-21T09:14:36;95993.84;;;29.14;100.00
27429;BME280;14881;48.092;11.574;2023-08-21T09:17:03;95994.28;;;29.34;100.00
27429;BME280;14881;48.092;11.574;2023-08-21T09:19:29;95988.69;;;29.52;100.00
27429;BME280;14881;48.092;11.574;2023-08-21T09:21:56;95990.69;;;29.69;100.00
27429;BME280;14881;48.092;11.574;2023-08-21T09:24:23;95993.91;;;29.71;100.00
27429;BME280;14881;48.092;11.574;2023-08-21T09:26:49;95991.09;;;29.78;100.00
27429;BME280;14881;48.092;11.574;2023-08-21T09:29:17;95985.88;;;29.94;100.00
27429;BME280;14881;48.092;11.574;2023-08-21T09:31:43;95993.06;;;30.13;97.67
27429;BME280;14881;48.092;11.574;2023-08-21T09:34:12;95988.63;;;30.26;89.92
27429;BME280;14881;48.092;11.574;2023-08-21T09:36:38;95986.16;;;30.39;86.21
27429;BME280;14881;48.092;11.574;2023-08-21T09:39:05;95981.72;;;30.45;88.68
27429;BME280;14881;48.092;11.574;2023-08-21T09:41:33;95977.13;;;30.87;88.16
27429;BME280;14881;48.092;11.574;2023-08-21T09:44:00;95981.03;;;31.03;85.31
27429;BME280;14881;48.092;11.574;2023-08-21T09:46:27;95978.22;;;31.14;74.94
27429;BME280;14881;48.092;11.574;2023-08-21T09:48:54;95979.41;;;31.17;75.35
27429;BME280;14881;48.092;11.574;2023-08-21T09:51:21;95976.00;;;31.36;73.63
27429;BME280;14881;48.092;11.574;2023-08-21T09:53:47;95978.88;;;31.32;74.24
27429;BME280;14881;48.092;11.574;2023-08-21T09:56:14;95972.38;;;31.39;74.02
27429;BME280;14881;48.092;11.574;2023-08-21T09:58:43;95976.28;;;31.52;73.22
27429;BME280;14881;48.092;11.574;2023-08-21T10:01:09;95962.88;;;31.74;71.96
27429;BME280;14881;48.092;11.574;2023-08-21T10:03:40;95968.84;;;31.79;71.38
27429;BME280;14881;48.092;11.574;2023-08-21T10:06:08;95962.69;;;31.92;72.50
27429;BME280;14881;48.092;11.574;2023-08-21T10:08:37;95956.47;;;32.11;64.96
27429;BME280;14881;48.092;11.574;2023-08-21T10:11:05;95956.50;;;32.45;65.63
27429;BME280;14881;48.092;11.574;2023-08-21T10:13:33;95955.88;;;32.61;64.62
27429;BME280;14881;48.092;11.574;2023-08-21T10:16:01;95957.41;;;32.69;62.39
27429;BME280;14881;48.092;11.574;2023-08-21T10:18:30;95955.84;;;32.64;64.45
27429;BME280;14881;48.092;11.574;2023-08-21T10:21:10;95954.13;;;32.74;64.36
27429;BME280;14881;48.092;11.574;2023-08-21T10:23:38;95956.38;;;33.13;67.11
27429;BME280;14881;48.092;11.574;2023-08-21T10:26:10;95946.28;;;33.42;66.13
27429;BME280;14881;48.092;11.574;2023-08-21T10:28:59;95948.94;;;33.53;64.57
27429;BME280;14881;48.092;11.574;2023-08-21T10:31:32;95946.97;;;33.73;62.89
27429;BME280;14881;48.092;11.574;2023-08-21T10:34:01;95944.47;;;33.79;61.23
27429;BME280;14881;48.092;11.574;2023-08-21T10:37:06;95950.75;;;33.63;59.43
27429;BME280;14881;48.092;11.574;2023-08-21T10:39:36;95946.28;;;33.66;62.71
27429;BME280;14881;48.092;11.574;2023-08-21T10:42:07;95945.13;;;33.40;63.48
27429;BME280;14881;48.092;11.574;2023-08-21T10:44:48;95945.59;;;33.35;62.61
27429;BME280;14881;48.092;11.574;2023-08-21T10:47:31;95940.97;;;33.21;61.73
27429;BME280;14881;48.092;11.574;2023-08-21T10:49:59;95937.34;;;32.94;65.23
27429;BME280;14881;48.092;11.574;2023-08-21T10:52:27;95946.78;;;32.83;66.93
27429;BME280;14881;48.092;11.574;2023-08-21T10:54:55;95952.88;;;32.78;65.65
27429;BME280;14881;48.092;11.574;2023-08-21T10:57:22;95949.28;;;32.74;65.23
27429;BME280;14881;48.092;11.574;2023-08-21T10:59:54;95943.91;;;32.87;64.65
27429;BME280;14881;48.092;11.574;2023-08-21T11:02:21;95947.34;;;32.98;63.62
27429;BME280;14881;48.092;11.574;2023-08-21T11:04:49;95938.53;;;32.96;60.49
27429;BME280;14881;48.092;11.574;2023-08-21T11:07:16;95944.53;;;32.98;62.95
27429;BME280;14881;48.092;11.574;2023-08-21T11:09:42;95941.44;;;33.16;66.97
27429;BME280;14881;48.092;11.574;2023-08-21T11:12:11;95945.88;;;33.17;65.17
27429;BME280;14881;48.092;11.574;2023-08-21T11:14:38;95934.09;;;33.72;67.42
27429;BME280;14881;48.092;11.574;2023-08-21T11:17:05;95943.34;;;33.96;66.06
27429;BME280;14881;48.092;11.574;2023-08-21T11:19:32;95945.16;;;33.86;63.33
27429;BME280;14881;48.092;11.574;2023-08-21T11:21:59;95946.06;;;33.80;65.12
27429;BME280;14881;48.092;11.574;2023-08-21T11:24:30;95955.81;;;33.75;64.34
27429;BME280;14881;48.092;11.574;2023-08-21T11:26:57;95956.50;;;33.83;63.25
27429;BME280;14881;48.092;11.574;2023-08-21T11:29:24;95943.59;;;34.05;62.74
27429;BME280;14881;48.092;11.574;2023-08-21T11:31:51;95941.63;;;34.02;62.50
27429;BME280;14881;48.092;11.574;2023-08-21T11:34:18;95941.25;;;34.00;63.36
27429;BME280;14881;48.092;11.574;2023-08-21T11:36:50;95934.75;;;34.03;63.41
27429;BME280;14881;48.092;11.574;2023-08-21T11:39:17;95941.50;;;34.09;64.17
27429;BME280;14881;48.092;11.574;2023-08-21T11:41:53;95934.91;;;34.16;64.72
27429;BME280;14881;48.092;11.574;2023-08-21T11:44:19;95935.97;;;34.02;62.36
27429;BME280;14881;48.092;11.574;2023-08-21T11:46:45;95942.72;;;34.08;62.45
27429;BME280;14881;48.092;11.574;2023-08-21T11:49:12;95932.00;;;34.19;64.91
27429;BME280;14881;48.092;11.574;2023-08-21T11:51:39;95923.94;;;34.61;62.24
27429;BME280;14881;48.092;11.574;2023-08-21T11:54:05;95930.31;;;34.45;59.92
27429;BME280;14881;48.092;11.574;2023-08-21T11:56:32;95926.09;;;34.34;62.17
27429;BME280;14881;48.092;11.574;2023-08-21T11:58:59;95928.63;;;34.48;63.03
27429;BME280;14881;48.092;11.574;2023-08-21T12:01:26;95920.53;;;34.30;60.94
27429;BME280;14881;48.092;11.574;2023-08-21T12:03:53;95923.28;;;34.53;64.02
27429;BME280;14881;48.092;11.574;2023-08-21T12:06:21;95918.13;;;34.48;62.88
27429;BME280;14881;48.092;11.574;2023-08-21T12:08:47;95919.47;;;34.44;61.59
27429;BME280;14881;48.092;11.574;2023-08-21T12:11:14;95920.69;;;34.43;61.00
27429;BME280;14881;48.092;11.574;2023-08-21T12:13:41;95920.66;;;34.23;62.20
27429;BME280;14881;48.092;11.574;2023-08-21T12:16:07;95920.78;;;34.16;63.90
27429;BME280;14881;48.092;11.574;2023-08-21T12:18:34;95911.66;;;33.88;63.47
27429;BME280;14881;48.092;11.574;2023-08-21T12:21:00;95905.09;;;33.72;64.62
27429;BME280;14881;48.092;11.574;2023-08-21T12:23:27;95910.91;;;33.61;66.77
27429;BME280;14881;48.092;11.574;2023-08-21T12:25:54;95915.59;;;33.48;66.66
27429;BME280;14881;48.092;11.574;2023-08-21T12:28:20;95915.34;;;33.39;67.78
27429;BME280;14881;48.092;11.574;2023-08-21T12:30:47;95903.28;;;33.38;69.70
27429;BME280;14881;48.092;11.574;2023-08-21T12:33:13;95911.22;;;33.20;69.33
27429;BME280;14881;48.092;11.574;2023-08-21T12:35:50;95912.06;;;33.17;68.46
27429;BME280;14881;48.092;11.574;2023-08-21T12:38:16;95910.47;;;33.16;67.99
27429;BME280;14881;48.092;11.574;2023-08-21T12:40:42;95914.13;;;33.40;67.20
27429;BME280;14881;48.092;11.574;2023-08-21T12:43:09;95906.38;;;33.20;67.16